Time;durP1;ratioP1;P1;durP2;ratioP2;P2;SDS_P1;SDS_P2;PMS_P1;PMS_P2;Temp;Humidity;BMP_temperature;BMP_pressure;BME280_temperature;BME280_humidity;BME280_pressure;Samples;Min_cycle;Max_cycle;Signal;HPM_P1;HPM_P2
2021/06/05 00:00:12;;;;;;;8.04;4.35;;;;;;;;;;346992;152;856551;-57
2021/06/05 00:01:16;;;;;;;9.28;4.31;;;;;;;;;;344218;154;856483;-57
2021/06/05 00:02:17;;;;;;;7.02;4.27;;;;;;;;;;344049;152;856389;-58
2021/06/05 00:03:19;;;;;;;7.99;4.37;;;;;;;;;;346391;152;856442;-57
2021/06/05 00:04:21;;;;;;;10.73;4.45;;;;;;;;;;344872;154;863709;-58
2021/06/05 00:05:23;;;;;;;11.72;4.66;;;;;;;;;;340065;155;856406;-58
2021/06/05 00:06:26;;;;;;;8.72;4.58;;;;;;;;;;339550;155;864594;-57
2021/06/05 00:07:27;;;;;;;8.64;4.74;;;;;;;;;;340706;157;856995;-57
2021/06/05 00:08:29;;;;;;;8.49;4.54;;;;;;;;;;342860;154;864487;-58
2021/06/05 00:09:31;;;;;;;14.37;5.30;;;;;;;;;;342272;157;856262;-57
2021/06/05 00:10:35;;;;;;;5.85;4.52;;;;;;;;;;337726;155;856489;-57
2021/06/05 00:11:37;;;;;;;9.81;4.57;;;;;;;;;;344038;152;856530;-58
2021/06/05 00:12:38;;;;;;;9.68;4.89;;;;;;;;;;342862;155;856236;-58
2021/06/05 00:13:42;;;;;;;14.86;5.18;;;;;;;;;;349394;150;864116;-58
2021/06/05 00:14:43;;;;;;;8.67;4.87;;;;;;;;;;353915;150;856373;-57
2021/06/05 00:15:45;;;;;;;8.01;5.11;;;;;;;;;;355737;149;856242;-57
2021/06/05 00:16:47;;;;;;;7.07;4.71;;;;;;;;;;356491;147;856377;-57
2021/06/05 00:17:49;;;;;;;11.03;5.04;;;;;;;;;;355095;150;863660;-57
2021/06/05 00:18:50;;;;;;;11.77;5.11;;;;;;;;;;358080;148;856925;-57
2021/06/05 00:19:52;;;;;;;13.43;5.41;;;;;;;;;;355333;150;856220;-58
2021/06/05 00:20:54;;;;;;;10.74;5.40;;;;;;;;;;353681;150;863797;-57
2021/06/05 00:21:55;;;;;;;11.53;5.31;;;;;;;;;;355613;147;863883;-57
2021/06/05 00:23:00;;;;;;;12.29;5.21;;;;;;;;;;351922;149;860662;-58
2021/06/05 00:24:02;;;;;;;10.45;4.86;;;;;;;;;;353525;148;856303;-58
2021/06/05 00:25:04;;;;;;;8.59;5.31;;;;;;;;;;357276;147;856478;-58
2021/06/05 00:26:07;;;;;;;9.32;5.37;;;;;;;;;;355040;150;864000;-58
2021/06/05 00:27:09;;;;;;;9.19;5.04;;;;;;;;;;355926;147;856424;-58
2021/06/05 00:28:10;;;;;;;13.06;5.59;;;;;;;;;;359715;147;864046;-57
2021/06/05 00:29:12;;;;;;;12.96;5.75;;;;;;;;;;358242;150;864034;-57
2021/06/05 00:30:15;;;;;;;15.82;5.55;;;;;;;;;;355387;147;863834;-57
2021/06/05 00:31:17;;;;;;;11.03;6.24;;;;;;;;;;355398;150;864361;-57
2021/06/05 00:32:18;;;;;;;10.07;5.46;;;;;;;;;;357904;148;856854;-57
2021/06/05 00:33:20;;;;;;;12.95;5.90;;;;;;;;;;354799;148;856193;-56
2021/06/05 00:34:21;;;;;;;15.43;6.24;;;;;;;;;;353185;151;856312;-57
2021/06/05 00:35:23;;;;;;;12.92;5.94;;;;;;;;;;355218;148;856663;-57
2021/06/05 00:36:26;;;;;;;14.96;6.74;;;;;;;;;;357457;150;856809;-57
2021/06/05 00:37:27;;;;;;;14.03;5.28;;;;;;;;;;357699;147;856295;-57
2021/06/05 00:38:29;;;;;;;15.73;5.84;;;;;;;;;;356622;147;856999;-57
2021/06/05 00:39:31;;;;;;;12.17;5.99;;;;;;;;;;352836;150;856930;-57
2021/06/05 00:40:36;;;;;;;12.58;5.71;;;;;;;;;;356047;148;856466;-57
2021/06/05 00:41:38;;;;;;;15.06;5.53;;;;;;;;;;353461;148;856372;-57
2021/06/05 00:42:40;;;;;;;13.56;5.84;;;;;;;;;;351958;153;856241;-57
2021/06/05 00:43:42;;;;;;;12.98;5.82;;;;;;;;;;357666;148;858615;-57
2021/06/05 00:44:44;;;;;;;20.11;6.39;;;;;;;;;;354959;150;856705;-57
2021/06/05 00:45:45;;;;;;;19.92;5.41;;;;;;;;;;353683;148;863939;-57
2021/06/05 00:46:49;;;;;;;11.98;5.26;;;;;;;;;;354984;148;856311;-59
2021/06/05 00:47:50;;;;;;;14.31;5.59;;;;;;;;;;353541;150;856503;-57
2021/06/05 00:48:52;;;;;;;12.34;5.76;;;;;;;;;;354706;148;857867;-57
2021/06/05 00:49:55;;;;;;;12.34;5.91;;;;;;;;;;351997;150;856157;-57
2021/06/05 00:50:57;;;;;;;13.56;5.69;;;;;;;;;;352925;149;856247;-57
2021/06/05 00:52:01;;;;;;;15.86;5.81;;;;;;;;;;357274;147;856226;-57
2021/06/05 00:53:02;;;;;;;13.87;6.05;;;;;;;;;;357525;150;863839;-57
2021/06/05 00:54:04;;;;;;;13.10;5.50;;;;;;;;;;356455;147;856355;-57
2021/06/05 00:55:06;;;;;;;13.35;5.89;;;;;;;;;;354264;150;856738;-57
2021/06/05 00:56:09;;;;;;;20.65;6.07;;;;;;;;;;358174;150;864124;-57
2021/06/05 00:57:10;;;;;;;11.10;5.71;;;;;;;;;;361453;148;856734;-57
2021/06/05 00:58:12;;;;;;;13.76;4.90;;;;;;;;;;358972;147;856332;-57
2021/06/05 00:59:14;;;;;;;12.34;5.76;;;;;;;;;;353660;147;856236;-56
2021/06/05 01:00:17;;;;;;;14.60;5.37;;;;;;;;;;355194;148;863897;-57
2021/06/05 01:01:22;;;;;;;16.05;5.90;;;;;;;;;;347579;151;863945;-57
2021/06/05 01:02:35;;;;;;;10.44;5.32;;;;;;;;;;352059;147;864834;-57
2021/06/05 01:03:37;;;;;;;12.70;5.34;;;;;;;;;;352056;153;856710;-57
2021/06/05 01:04:39;;;;;;;9.77;5.75;;;;;;;;;;357532;148;863930;-57
2021/06/05 01:05:41;;;;;;;15.04;5.97;;;;;;;;;;350348;150;856341;-57
2021/06/05 01:06:58;;;;;;;11.75;5.33;;;;;;;;;;350898;150;863894;-58
2021/06/05 01:08:05;;;;;;;8.88;5.65;;;;;;;;;;357563;147;863839;-57
2021/06/05 01:09:08;;;;;;;10.52;5.22;;;;;;;;;;354655;151;856669;-57
2021/06/05 01:10:12;;;;;;;13.58;5.44;;;;;;;;;;355699;147;856796;-57
2021/06/05 01:11:27;;;;;;;13.41;5.63;;;;;;;;;;356244;148;856552;-57
2021/06/05 01:12:34;;;;;;;13.71;5.79;;;;;;;;;;355588;150;856837;-57
2021/06/05 01:13:43;;;;;;;11.88;5.85;;;;;;;;;;359712;148;856252;-58
2021/06/05 01:14:46;;;;;;;9.94;5.29;;;;;;;;;;354895;150;856448;-57
2021/06/05 01:15:57;;;;;;;10.01;4.98;;;;;;;;;;351447;150;856477;-57
2021/06/05 01:17:00;;;;;;;15.47;5.92;;;;;;;;;;346204;153;863877;-57
2021/06/05 01:18:09;;;;;;;14.49;5.67;;;;;;;;;;351139;152;856199;-57
2021/06/05 01:19:13;;;;;;;10.11;5.30;;;;;;;;;;348126;152;864187;-57
2021/06/05 01:20:16;;;;;;;14.43;5.17;;;;;;;;;;348489;151;856351;-57
2021/06/05 01:21:36;;;;;;;10.44;5.74;;;;;;;;;;351387;150;856432;-57
2021/06/05 01:22:56;;;;;;;12.12;5.75;;;;;;;;;;351390;153;856756;-57
2021/06/05 01:24:00;;;;;;;11.17;5.78;;;;;;;;;;348346;150;863752;-57
2021/06/05 01:25:03;;;;;;;15.10;6.05;;;;;;;;;;350399;153;863844;-57
2021/06/05 01:26:13;;;;;;;10.09;5.53;;;;;;;;;;347267;151;856488;-58
2021/06/05 01:27:24;;;;;;;10.68;5.10;;;;;;;;;;348266;150;856818;-58
2021/06/05 01:28:28;;;;;;;11.01;5.18;;;;;;;;;;350571;153;856474;-58
2021/06/05 01:29:30;;;;;;;14.27;5.57;;;;;;;;;;353388;150;857116;-58
2021/06/05 01:30:36;;;;;;;11.60;5.49;;;;;;;;;;352855;152;856365;-58
2021/06/05 01:31:39;;;;;;;10.77;5.48;;;;;;;;;;351226;150;856220;-58
2021/06/05 01:32:40;;;;;;;11.59;6.05;;;;;;;;;;352347;150;856585;-58
2021/06/05 01:33:42;;;;;;;10.95;5.52;;;;;;;;;;352453;150;856157;-57
2021/06/05 01:34:45;;;;;;;15.19;5.71;;;;;;;;;;351052;150;856167;-58
2021/06/05 01:35:46;;;;;;;9.56;5.08;;;;;;;;;;344233;155;856175;-58
2021/06/05 01:36:49;;;;;;;10.39;5.35;;;;;;;;;;342394;156;856241;-58
2021/06/05 01:37:52;;;;;;;10.28;5.19;;;;;;;;;;347746;150;864957;-57
2021/06/05 01:38:58;;;;;;;11.52;4.91;;;;;;;;;;352788;150;863866;-57
2021/06/05 01:39:59;;;;;;;11.13;5.84;;;;;;;;;;348329;150;858863;-58
2021/06/05 01:41:01;;;;;;;10.19;5.31;;;;;;;;;;349705;153;856364;-58
2021/06/05 01:42:04;;;;;;;13.72;5.44;;;;;;;;;;349475;151;864050;-57
2021/06/05 01:43:06;;;;;;;7.66;4.48;;;;;;;;;;349738;150;856327;-57
2021/06/05 01:44:08;;;;;;;11.84;5.72;;;;;;;;;;347996;154;858529;-57
2021/06/05 01:45:12;;;;;;;12.88;5.50;;;;;;;;;;352449;150;866231;-57
2021/06/05 01:46:15;;;;;;;9.93;4.69;;;;;;;;;;350724;150;856946;-57
2021/06/05 01:47:16;;;;;;;11.84;5.15;;;;;;;;;;351271;153;856309;-57
2021/06/05 01:48:18;;;;;;;12.51;5.31;;;;;;;;;;349247;150;856468;-57
2021/06/05 01:49:20;;;;;;;9.52;5.18;;;;;;;;;;352744;152;856232;-57
2021/06/05 01:50:22;;;;;;;10.34;4.47;;;;;;;;;;350923;153;856628;-57
2021/06/05 01:51:24;;;;;;;11.24;4.39;;;;;;;;;;351236;150;856335;-57
2021/06/05 01:52:27;;;;;;;10.69;5.41;;;;;;;;;;348607;153;856374;-57
2021/06/05 01:53:30;;;;;;;9.02;4.84;;;;;;;;;;346910;150;864111;-57
2021/06/05 01:54:36;;;;;;;10.82;5.06;;;;;;;;;;352306;151;856997;-57
2021/06/05 01:55:40;;;;;;;8.17;4.52;;;;;;;;;;347151;152;856911;-57
2021/06/05 01:56:43;;;;;;;8.08;4.88;;;;;;;;;;349235;150;856490;-57
2021/06/05 01:57:46;;;;;;;10.48;4.69;;;;;;;;;;347753;153;856286;-57
2021/06/05 01:58:48;;;;;;;7.17;4.84;;;;;;;;;;350407;150;856277;-57
2021/06/05 01:59:49;;;;;;;10.01;4.24;;;;;;;;;;351247;150;856756;-57
2021/06/05 02:00:52;;;;;;;10.15;4.88;;;;;;;;;;352234;153;856302;-57
2021/06/05 02:01:55;;;;;;;8.36;4.66;;;;;;;;;;349645;150;856402;-57
2021/06/05 02:02:57;;;;;;;9.29;4.83;;;;;;;;;;350499;153;856832;-57
2021/06/05 02:03:59;;;;;;;13.32;4.75;;;;;;;;;;349381;152;856155;-57
2021/06/05 02:05:00;;;;;;;11.69;5.04;;;;;;;;;;352137;150;856198;-57
2021/06/05 02:06:02;;;;;;;9.18;5.06;;;;;;;;;;351324;153;864014;-57
2021/06/05 02:07:04;;;;;;;10.38;4.85;;;;;;;;;;351453;150;863837;-57
2021/06/05 02:08:06;;;;;;;16.23;4.91;;;;;;;;;;348736;152;863873;-56
2021/06/05 02:09:08;;;;;;;7.76;4.71;;;;;;;;;;352016;150;856565;-57
2021/06/05 02:10:12;;;;;;;8.79;4.96;;;;;;;;;;351278;150;864067;-57
2021/06/05 02:11:14;;;;;;;11.05;4.85;;;;;;;;;;341630;156;863796;-57
2021/06/05 02:12:17;;;;;;;10.82;4.65;;;;;;;;;;346764;153;856638;-57
2021/06/05 02:13:20;;;;;;;8.40;4.42;;;;;;;;;;341913;154;864434;-57
2021/06/05 02:14:27;;;;;;;13.14;4.54;;;;;;;;;;341042;155;856193;-57
2021/06/05 02:15:33;;;;;;;7.61;4.33;;;;;;;;;;356816;147;856215;-57
2021/06/05 02:16:38;;;;;;;7.42;4.58;;;;;;;;;;352520;150;856904;-57
2021/06/05 02:17:40;;;;;;;9.93;4.47;;;;;;;;;;354515;148;856752;-58
2021/06/05 02:18:43;;;;;;;9.78;5.01;;;;;;;;;;354633;148;856824;-57
2021/06/05 02:19:45;;;;;;;7.43;4.74;;;;;;;;;;352311;148;856309;-58
2021/06/05 02:20:50;;;;;;;9.58;4.66;;;;;;;;;;355819;147;856838;-59
2021/06/05 02:21:52;;;;;;;9.08;4.59;;;;;;;;;;356931;148;863692;-59
2021/06/05 02:22:53;;;;;;;8.74;5.01;;;;;;;;;;352555;149;856966;-59
2021/06/05 02:23:57;;;;;;;10.10;4.91;;;;;;;;;;353495;147;856704;-59
2021/06/05 02:24:59;;;;;;;8.96;4.28;;;;;;;;;;354464;150;856185;-57
2021/06/05 02:26:00;;;;;;;10.33;4.59;;;;;;;;;;355819;147;856554;-58
2021/06/05 02:27:02;;;;;;;8.73;4.82;;;;;;;;;;355954;150;856519;-59
2021/06/05 02:28:04;;;;;;;11.77;5.21;;;;;;;;;;348260;154;856427;-57
2021/06/05 02:29:06;;;;;;;9.26;4.70;;;;;;;;;;350025;151;864133;-56
2021/06/05 02:30:10;;;;;;;6.39;4.34;;;;;;;;;;353090;150;856586;-57
2021/06/05 02:31:11;;;;;;;8.77;4.51;;;;;;;;;;353905;149;864067;-57
2021/06/05 02:32:15;;;;;;;8.21;4.41;;;;;;;;;;354660;147;863985;-57
2021/06/05 02:33:16;;;;;;;13.84;5.16;;;;;;;;;;355124;151;856228;-56
2021/06/05 02:34:20;;;;;;;11.16;4.59;;;;;;;;;;357764;148;856159;-57
2021/06/05 02:35:23;;;;;;;8.46;4.56;;;;;;;;;;356855;150;856605;-58
2021/06/05 02:36:25;;;;;;;7.21;4.58;;;;;;;;;;357490;148;856154;-56
2021/06/05 02:37:28;;;;;;;12.30;4.67;;;;;;;;;;354470;147;861420;-57
2021/06/05 02:38:29;;;;;;;9.22;4.36;;;;;;;;;;352584;152;864067;-56
2021/06/05 02:39:31;;;;;;;11.41;5.16;;;;;;;;;;355932;148;856253;-56
2021/06/05 02:40:35;;;;;;;10.20;4.72;;;;;;;;;;355831;150;864512;-56
2021/06/05 02:41:37;;;;;;;11.62;4.94;;;;;;;;;;355882;148;856351;-57
2021/06/05 02:42:38;;;;;;;11.71;4.75;;;;;;;;;;351868;150;857207;-55
2021/06/05 02:43:42;;;;;;;7.99;4.61;;;;;;;;;;351227;150;863824;-56
2021/06/05 02:44:45;;;;;;;9.18;4.74;;;;;;;;;;355264;148;856367;-56
2021/06/05 02:45:48;;;;;;;10.07;4.66;;;;;;;;;;355588;148;856427;-57
2021/06/05 02:46:50;;;;;;;7.87;4.72;;;;;;;;;;356296;148;856308;-56
2021/06/05 02:47:53;;;;;;;10.96;4.72;;;;;;;;;;356687;148;856245;-57
2021/06/05 02:48:56;;;;;;;8.23;4.66;;;;;;;;;;352294;152;856363;-57
2021/06/05 02:50:03;;;;;;;9.64;4.39;;;;;;;;;;356827;149;856242;-57
2021/06/05 02:51:04;;;;;;;6.31;4.41;;;;;;;;;;353584;148;856453;-55
2021/06/05 02:52:10;;;;;;;16.75;4.91;;;;;;;;;;353418;150;857012;-58
2021/06/05 02:53:13;;;;;;;8.32;4.56;;;;;;;;;;356254;147;856405;-56
2021/06/05 02:54:14;;;;;;;7.22;4.81;;;;;;;;;;353554;150;856283;-58
2021/06/05 02:55:18;;;;;;;10.16;4.86;;;;;;;;;;355215;149;856257;-56
2021/06/05 02:56:21;;;;;;;11.38;4.59;;;;;;;;;;354451;147;864190;-57
2021/06/05 02:57:22;;;;;;;7.56;4.44;;;;;;;;;;357849;148;856589;-57
2021/06/05 02:58:24;;;;;;;9.70;4.64;;;;;;;;;;360082;147;863647;-57
2021/06/05 02:59:28;;;;;;;9.66;4.63;;;;;;;;;;353970;150;856213;-55
2021/06/05 03:00:37;;;;;;;14.54;4.84;;;;;;;;;;352752;149;856379;-56
2021/06/05 03:01:38;;;;;;;10.80;5.41;;;;;;;;;;358254;147;856209;-56
2021/06/05 03:02:40;;;;;;;11.30;4.79;;;;;;;;;;349587;151;856438;-56
2021/06/05 03:03:42;;;;;;;7.21;4.69;;;;;;;;;;348800;148;864003;-56
2021/06/05 03:04:44;;;;;;;8.58;4.94;;;;;;;;;;353702;148;856606;-56
2021/06/05 03:05:45;;;;;;;7.38;4.47;;;;;;;;;;353072;152;856460;-56
2021/06/05 03:06:47;;;;;;;10.69;4.86;;;;;;;;;;355291;148;856162;-55
2021/06/05 03:07:49;;;;;;;11.29;4.62;;;;;;;;;;355835;150;856168;-57
2021/06/05 03:08:50;;;;;;;10.49;5.01;;;;;;;;;;354825;148;863759;-57
2021/06/05 03:09:52;;;;;;;8.29;4.61;;;;;;;;;;355899;147;864330;-57
2021/06/05 03:10:54;;;;;;;11.22;4.75;;;;;;;;;;355758;148;863815;-56
2021/06/05 03:11:55;;;;;;;7.47;4.24;;;;;;;;;;356108;148;856380;-57
2021/06/05 03:12:58;;;;;;;11.19;4.79;;;;;;;;;;355683;150;856602;-57
2021/06/05 03:13:59;;;;;;;11.17;4.49;;;;;;;;;;357589;150;856681;-58
2021/06/05 03:15:01;;;;;;;9.64;4.63;;;;;;;;;;354903;147;858733;-57
2021/06/05 03:16:03;;;;;;;8.72;4.79;;;;;;;;;;349212;151;865413;-59
2021/06/05 03:17:05;;;;;;;8.33;4.58;;;;;;;;;;350961;151;865014;-58
2021/06/05 03:18:07;;;;;;;13.47;4.65;;;;;;;;;;352509;148;857824;-58
2021/06/05 03:19:08;;;;;;;11.13;4.49;;;;;;;;;;351740;153;857410;-58
2021/06/05 03:20:12;;;;;;;12.81;4.87;;;;;;;;;;356448;147;856375;-58
2021/06/05 03:21:18;;;;;;;7.53;4.55;;;;;;;;;;352024;153;856428;-59
2021/06/05 03:22:20;;;;;;;22.58;5.22;;;;;;;;;;356672;149;856172;-60
2021/06/05 03:23:22;;;;;;;9.19;4.47;;;;;;;;;;355957;148;856563;-57
2021/06/05 03:24:24;;;;;;;7.31;5.13;;;;;;;;;;356215;150;863758;-59
2021/06/05 03:25:25;;;;;;;7.76;4.34;;;;;;;;;;356162;148;856123;-59
2021/06/05 03:26:28;;;;;;;10.43;4.67;;;;;;;;;;353297;149;856290;-58
2021/06/05 03:27:29;;;;;;;6.76;4.79;;;;;;;;;;354909;150;858253;-59
2021/06/05 03:28:31;;;;;;;11.53;4.88;;;;;;;;;;356873;147;858578;-58
2021/06/05 03:29:33;;;;;;;8.73;5.00;;;;;;;;;;355553;149;857187;-58
2021/06/05 03:30:36;;;;;;;10.73;4.83;;;;;;;;;;357571;148;856240;-59
2021/06/05 03:31:38;;;;;;;9.67;5.10;;;;;;;;;;356312;147;856309;-57
2021/06/05 03:32:39;;;;;;;12.81;4.62;;;;;;;;;;354496;150;864230;-59
2021/06/05 03:33:41;;;;;;;7.31;4.37;;;;;;;;;;356277;148;856747;-58
2021/06/05 03:34:42;;;;;;;10.23;5.44;;;;;;;;;;353748;147;856746;-59
2021/06/05 03:35:44;;;;;;;15.41;5.76;;;;;;;;;;353766;149;856908;-59
2021/06/05 03:36:47;;;;;;;12.82;5.40;;;;;;;;;;356085;148;856643;-60
2021/06/05 03:37:49;;;;;;;14.56;5.64;;;;;;;;;;354502;147;856243;-58
2021/06/05 03:38:51;;;;;;;14.06;5.11;;;;;;;;;;356139;147;863954;-58
2021/06/05 03:39:52;;;;;;;10.04;5.09;;;;;;;;;;357091;149;865033;-62
2021/06/05 03:40:54;;;;;;;12.06;4.81;;;;;;;;;;351766;153;857162;-58
2021/06/05 03:41:55;;;;;;;7.53;4.36;;;;;;;;;;354810;147;864438;-58
2021/06/05 03:42:57;;;;;;;8.05;3.81;;;;;;;;;;357392;147;866420;-61
2021/06/05 03:43:59;;;;;;;10.34;4.05;;;;;;;;;;355496;149;858311;-58
2021/06/05 03:45:00;;;;;;;5.52;3.74;;;;;;;;;;355326;148;866582;-58
2021/06/05 03:46:02;;;;;;;8.86;4.09;;;;;;;;;;353220;150;860260;-59
2021/06/05 03:47:04;;;;;;;8.58;4.57;;;;;;;;;;354530;149;859185;-59
2021/06/05 03:48:06;;;;;;;6.83;3.61;;;;;;;;;;356492;148;858244;-58
2021/06/05 03:49:09;;;;;;;8.37;3.86;;;;;;;;;;357963;149;859907;-59
2021/06/05 03:50:12;;;;;;;6.29;3.82;;;;;;;;;;358716;148;863827;-59
2021/06/05 03:51:13;;;;;;;7.06;4.05;;;;;;;;;;355014;147;856267;-60
2021/06/05 03:52:15;;;;;;;9.49;3.61;;;;;;;;;;354207;150;857524;-59
2021/06/05 03:53:17;;;;;;;8.91;4.01;;;;;;;;;;357421;147;857169;-58
2021/06/05 03:54:18;;;;;;;9.65;4.11;;;;;;;;;;354786;150;856340;-58
2021/06/05 03:55:20;;;;;;;7.61;4.01;;;;;;;;;;354023;150;864078;-59
2021/06/05 03:56:23;;;;;;;10.21;4.24;;;;;;;;;;356181;147;863745;-65
2021/06/05 03:57:25;;;;;;;9.66;4.16;;;;;;;;;;355306;150;856510;-60
2021/06/05 03:58:28;;;;;;;7.13;3.64;;;;;;;;;;354792;149;856271;-61
2021/06/05 03:59:29;;;;;;;6.78;3.98;;;;;;;;;;354302;148;856506;-62
2021/06/05 04:00:34;;;;;;;13.69;4.20;;;;;;;;;;356737;149;856396;-61
2021/06/05 04:01:36;;;;;;;8.61;4.08;;;;;;;;;;355276;148;856468;-62
2021/06/05 04:02:37;;;;;;;9.27;4.19;;;;;;;;;;354433;148;856362;-62
2021/06/05 04:03:39;;;;;;;8.17;3.62;;;;;;;;;;353391;150;863711;-63
2021/06/05 04:04:41;;;;;;;9.04;4.41;;;;;;;;;;356676;147;856386;-64
2021/06/05 04:05:42;;;;;;;8.12;3.91;;;;;;;;;;359647;148;864110;-68
2021/06/05 04:06:46;;;;;;;7.51;3.98;;;;;;;;;;360635;148;856184;-60
2021/06/05 04:07:47;;;;;;;8.72;4.10;;;;;;;;;;355126;148;856769;-65
2021/06/05 04:08:49;;;;;;;9.64;3.85;;;;;;;;;;353348;148;863796;-63
2021/06/05 04:09:50;;;;;;;7.17;3.95;;;;;;;;;;358783;148;856274;-68
2021/06/05 04:10:53;;;;;;;9.87;4.85;;;;;;;;;;359061;147;856274;-66
2021/06/05 04:11:54;;;;;;;10.34;3.94;;;;;;;;;;355875;148;856378;-63
2021/06/05 04:12:57;;;;;;;8.01;3.74;;;;;;;;;;356079;147;863872;-61
2021/06/05 04:14:01;;;;;;;7.07;3.71;;;;;;;;;;355263;149;863910;-61
2021/06/05 04:15:03;;;;;;;11.54;3.54;;;;;;;;;;356057;149;856136;-62
2021/06/05 04:16:05;;;;;;;6.29;3.63;;;;;;;;;;357115;147;856404;-60
2021/06/05 04:17:08;;;;;;;11.56;4.68;;;;;;;;;;356163;150;862942;-59
2021/06/05 04:18:14;;;;;;;8.97;3.58;;;;;;;;;;354252;148;864694;-60
2021/06/05 04:19:16;;;;;;;7.99;3.64;;;;;;;;;;352126;148;857665;-59
2021/06/05 04:20:18;;;;;;;10.28;3.61;;;;;;;;;;355967;149;856118;-59
2021/06/05 04:21:20;;;;;;;7.68;4.06;;;;;;;;;;355829;148;856538;-60
2021/06/05 04:22:21;;;;;;;11.33;4.17;;;;;;;;;;355442;148;856245;-60
2021/06/05 04:23:23;;;;;;;8.85;3.89;;;;;;;;;;356384;148;856259;-59
2021/06/05 04:24:24;;;;;;;8.31;3.46;;;;;;;;;;355175;148;856358;-60
2021/06/05 04:25:26;;;;;;;7.66;3.58;;;;;;;;;;354569;150;856274;-60
2021/06/05 04:26:28;;;;;;;9.02;3.87;;;;;;;;;;353756;148;856960;-59
2021/06/05 04:27:30;;;;;;;7.39;3.44;;;;;;;;;;355619;148;856410;-59
2021/06/05 04:28:31;;;;;;;10.09;3.74;;;;;;;;;;355307;150;863777;-59
2021/06/05 04:29:33;;;;;;;12.42;4.04;;;;;;;;;;354842;148;856504;-60
2021/06/05 04:30:35;;;;;;;11.70;4.27;;;;;;;;;;357860;147;856356;-59
2021/06/05 04:31:37;;;;;;;5.40;3.63;;;;;;;;;;355621;147;856262;-59
2021/06/05 04:32:39;;;;;;;7.89;3.87;;;;;;;;;;355750;147;856337;-59
2021/06/05 04:33:40;;;;;;;6.79;4.30;;;;;;;;;;358119;148;863767;-57
2021/06/05 04:34:42;;;;;;;8.08;3.91;;;;;;;;;;353190;150;856229;-59
2021/06/05 04:35:43;;;;;;;7.74;3.78;;;;;;;;;;355981;147;856505;-59
2021/06/05 04:36:48;;;;;;;8.44;3.96;;;;;;;;;;357190;149;856347;-60
2021/06/05 04:37:50;;;;;;;7.95;4.08;;;;;;;;;;357333;149;856589;-58
2021/06/05 04:38:52;;;;;;;8.32;3.85;;;;;;;;;;350608;151;856754;-60
2021/06/05 04:39:54;;;;;;;8.61;3.71;;;;;;;;;;350130;150;856782;-59
2021/06/05 04:40:56;;;;;;;8.19;3.89;;;;;;;;;;355775;148;863788;-59
2021/06/05 04:41:57;;;;;;;8.39;4.39;;;;;;;;;;355206;148;864161;-59
2021/06/05 04:42:59;;;;;;;7.35;4.17;;;;;;;;;;354110;150;863727;-58
2021/06/05 04:44:00;;;;;;;10.00;4.35;;;;;;;;;;355189;148;863838;-59
2021/06/05 04:45:02;;;;;;;11.20;4.09;;;;;;;;;;355591;147;856735;-56
2021/06/05 04:46:04;;;;;;;9.09;4.13;;;;;;;;;;355721;150;856474;-60
2021/06/05 04:47:05;;;;;;;7.19;3.76;;;;;;;;;;354985;147;856461;-59
2021/06/05 04:48:07;;;;;;;12.20;3.95;;;;;;;;;;355691;150;856384;-59
2021/06/05 04:49:09;;;;;;;9.29;4.24;;;;;;;;;;354756;149;856650;-59
2021/06/05 04:50:12;;;;;;;8.12;3.60;;;;;;;;;;354803;147;864569;-59
2021/06/05 04:51:14;;;;;;;6.79;3.75;;;;;;;;;;355436;150;856281;-59
2021/06/05 04:52:15;;;;;;;5.28;3.58;;;;;;;;;;354828;147;856588;-58
2021/06/05 04:53:17;;;;;;;11.66;3.76;;;;;;;;;;353982;148;863683;-59
2021/06/05 04:54:18;;;;;;;9.45;3.96;;;;;;;;;;358629;149;864026;-59
2021/06/05 04:55:20;;;;;;;9.82;4.22;;;;;;;;;;358424;148;856251;-59
2021/06/05 04:56:24;;;;;;;9.27;3.74;;;;;;;;;;356542;150;856503;-57
2021/06/05 04:57:26;;;;;;;7.40;3.64;;;;;;;;;;355920;149;856985;-59
2021/06/05 04:58:27;;;;;;;10.63;3.97;;;;;;;;;;357312;148;856488;-59
2021/06/05 04:59:29;;;;;;;7.86;3.76;;;;;;;;;;356730;149;856556;-59
2021/06/05 05:00:35;;;;;;;11.10;3.76;;;;;;;;;;354639;149;863747;-59
2021/06/05 05:01:37;;;;;;;9.73;3.52;;;;;;;;;;355304;147;856304;-60
2021/06/05 05:02:38;;;;;;;7.43;3.38;;;;;;;;;;354284;149;857001;-57
2021/06/05 05:03:40;;;;;;;8.88;3.38;;;;;;;;;;353063;148;857602;-57
2021/06/05 05:04:43;;;;;;;11.79;3.69;;;;;;;;;;354811;148;856256;-59
2021/06/05 05:05:45;;;;;;;5.72;3.35;;;;;;;;;;355100;150;864188;-57
2021/06/05 05:06:47;;;;;;;6.81;3.17;;;;;;;;;;354326;147;856542;-57
2021/06/05 05:07:48;;;;;;;10.49;3.61;;;;;;;;;;356164;149;856853;-58
2021/06/05 05:08:50;;;;;;;7.95;3.51;;;;;;;;;;355777;149;863833;-57
2021/06/05 05:09:51;;;;;;;7.22;3.36;;;;;;;;;;355890;147;863698;-58
2021/06/05 05:10:53;;;;;;;7.21;3.30;;;;;;;;;;356152;150;856801;-57
2021/06/05 05:11:55;;;;;;;10.65;3.91;;;;;;;;;;353850;149;863761;-58
2021/06/05 05:12:56;;;;;;;6.91;3.44;;;;;;;;;;357697;148;856957;-58
2021/06/05 05:13:58;;;;;;;6.31;3.11;;;;;;;;;;355838;149;857200;-58
2021/06/05 05:14:59;;;;;;;9.95;3.23;;;;;;;;;;355030;148;863919;-58
2021/06/05 05:16:01;;;;;;;6.99;3.49;;;;;;;;;;356655;148;856960;-58
2021/06/05 05:17:03;;;;;;;7.85;3.06;;;;;;;;;;356627;149;864539;-58
2021/06/05 05:18:05;;;;;;;10.89;3.04;;;;;;;;;;355266;148;856430;-59
2021/06/05 05:19:06;;;;;;;6.24;3.44;;;;;;;;;;356594;150;863858;-59
2021/06/05 05:20:09;;;;;;;6.40;3.24;;;;;;;;;;357220;149;856413;-59
2021/06/05 05:21:10;;;;;;;15.19;3.73;;;;;;;;;;355525;148;856676;-59
2021/06/05 05:22:12;;;;;;;6.98;2.73;;;;;;;;;;357339;150;856579;-59
2021/06/05 05:23:13;;;;;;;5.87;2.96;;;;;;;;;;355956;148;863753;-58
2021/06/05 05:24:15;;;;;;;9.01;3.18;;;;;;;;;;357392;148;856481;-59
2021/06/05 05:25:17;;;;;;;5.93;3.22;;;;;;;;;;356845;150;863766;-59
2021/06/05 05:26:19;;;;;;;11.32;3.33;;;;;;;;;;352729;148;856210;-60
2021/06/05 05:27:21;;;;;;;7.69;3.79;;;;;;;;;;356439;147;856498;-59
2021/06/05 05:28:22;;;;;;;8.47;2.96;;;;;;;;;;353664;150;856348;-59
2021/06/05 05:29:24;;;;;;;7.41;2.76;;;;;;;;;;355318;148;856572;-59
2021/06/05 05:30:34;;;;;;;6.62;2.67;;;;;;;;;;354830;150;863947;-58
2021/06/05 05:31:36;;;;;;;7.69;3.01;;;;;;;;;;354723;149;856357;-59
2021/06/05 05:32:37;;;;;;;4.76;2.74;;;;;;;;;;357831;148;856661;-58
2021/06/05 05:33:39;;;;;;;18.06;3.68;;;;;;;;;;356776;148;856333;-58
2021/06/05 05:34:40;;;;;;;10.01;3.54;;;;;;;;;;353935;149;856242;-58
2021/06/05 05:35:42;;;;;;;7.16;3.49;;;;;;;;;;356265;147;864066;-58
2021/06/05 05:36:45;;;;;;;4.14;2.41;;;;;;;;;;355516;150;856807;-59
2021/06/05 05:37:47;;;;;;;7.69;2.71;;;;;;;;;;354387;147;856513;-60
2021/06/05 05:38:49;;;;;;;4.75;2.67;;;;;;;;;;358713;149;856534;-62
2021/06/05 05:39:50;;;;;;;5.47;2.77;;;;;;;;;;356351;149;856271;-61
2021/06/05 05:40:52;;;;;;;5.84;3.06;;;;;;;;;;356595;147;863933;-61
2021/06/05 05:41:54;;;;;;;6.05;2.82;;;;;;;;;;354959;150;863632;-59
2021/06/05 05:42:55;;;;;;;7.61;3.23;;;;;;;;;;355502;149;856229;-60
2021/06/05 05:43:57;;;;;;;8.60;3.61;;;;;;;;;;354820;148;856292;-64
2021/06/05 05:44:58;;;;;;;6.93;2.77;;;;;;;;;;357265;149;863673;-59
2021/06/05 05:46:00;;;;;;;4.32;2.76;;;;;;;;;;358539;147;856384;-59
2021/06/05 05:47:02;;;;;;;4.62;2.60;;;;;;;;;;345944;153;856763;-61
2021/06/05 05:48:04;;;;;;;4.36;2.41;;;;;;;;;;343875;152;856425;-61
2021/06/05 05:49:06;;;;;;;8.07;2.47;;;;;;;;;;345431;153;864062;-61
2021/06/05 05:50:09;;;;;;;4.93;2.68;;;;;;;;;;344261;153;856588;-61
2021/06/05 05:51:11;;;;;;;9.25;2.43;;;;;;;;;;354682;150;856385;-59
2021/06/05 05:52:13;;;;;;;5.29;2.58;;;;;;;;;;354764;148;857104;-60
2021/06/05 05:53:14;;;;;;;4.60;2.49;;;;;;;;;;361884;147;856274;-59
2021/06/05 05:54:16;;;;;;;6.34;2.64;;;;;;;;;;356752;149;856299;-58
2021/06/05 05:55:18;;;;;;;5.84;2.42;;;;;;;;;;354604;148;863643;-59
2021/06/05 05:56:22;;;;;;;9.26;2.71;;;;;;;;;;358103;149;863694;-59
2021/06/05 05:57:24;;;;;;;7.23;2.40;;;;;;;;;;356460;148;856567;-59
2021/06/05 05:58:25;;;;;;;5.54;2.64;;;;;;;;;;358357;147;863691;-60
2021/06/05 05:59:27;;;;;;;6.40;2.49;;;;;;;;;;358777;149;856244;-60
2021/06/05 06:00:29;;;;;;;6.58;2.76;;;;;;;;;;355034;148;856399;-59
2021/06/05 06:01:31;;;;;;;8.20;2.82;;;;;;;;;;357291;149;856368;-61
2021/06/05 06:02:32;;;;;;;4.34;2.30;;;;;;;;;;355017;149;856724;-61
2021/06/05 06:03:34;;;;;;;3.91;2.54;;;;;;;;;;355846;148;856194;-58
2021/06/05 06:04:35;;;;;;;6.52;2.24;;;;;;;;;;352793;149;856841;-58
2021/06/05 06:05:37;;;;;;;4.02;2.11;;;;;;;;;;357901;149;857024;-57
2021/06/05 06:06:39;;;;;;;7.89;2.26;;;;;;;;;;356051;147;863654;-58